Aviation Digital Data Service (ADDS)

Output produced by METARs form (2154 UTC 30 September 2014)
found at http://aviationweather.gov/adds/metars/
 
KGON 301956Z 3020/0118 09010KT P6SM SCT008 SCT035 BKN100 
     TEMPO 3020/3022 6SM -RA BKN008 
     FM302200 03010KT 5SM -RA BR OVC008 
     FM010100 03012KT 3SM -RA BR OVC006 
     FM011100 02012G18KT 2SM RA BR OVC005